sensor_id;sensor_type;location;lat;lon;timestamp;P1;durP1;ratioP1;P2;durP2;ratioP2
12120;SDS011;6124;59.460;17.908;2023-08-07T00:01:32;27.90;;;22.17;;
12120;SDS011;6124;59.460;17.908;2023-08-07T00:03:59;24.43;;;21.83;;
12120;SDS011;6124;59.460;17.908;2023-08-07T00:06:28;24.03;;;21.43;;
12120;SDS011;6124;59.460;17.908;2023-08-07T00:08:55;23.07;;;20.70;;
12120;SDS011;6124;59.460;17.908;2023-08-07T00:11:22;22.13;;;18.80;;
12120;SDS011;6124;59.460;17.908;2023-08-07T00:13:49;23.67;;;19.97;;
12120;SDS011;6124;59.460;17.908;2023-08-07T00:16:17;21.93;;;19.37;;
12120;SDS011;6124;59.460;17.908;2023-08-07T00:18:45;21.83;;;19.20;;
12120;SDS011;6124;59.460;17.908;2023-08-07T00:21:13;21.83;;;19.53;;
12120;SDS011;6124;59.460;17.908;2023-08-07T00:23:40;21.03;;;18.30;;
12120;SDS011;6124;59.460;17.908;2023-08-07T00:26:08;25.77;;;19.60;;
12120;SDS011;6124;59.460;17.908;2023-08-07T00:28:35;24.03;;;18.90;;
12120;SDS011;6124;59.460;17.908;2023-08-07T00:31:02;23.37;;;19.63;;
12120;SDS011;6124;59.460;17.908;2023-08-07T00:33:29;22.30;;;18.93;;
12120;SDS011;6124;59.460;17.908;2023-08-07T00:35:58;20.93;;;18.53;;
12120;SDS011;6124;59.460;17.908;2023-08-07T00:38:25;22.63;;;19.77;;
12120;SDS011;6124;59.460;17.908;2023-08-07T00:40:53;22.97;;;20.60;;
12120;SDS011;6124;59.460;17.908;2023-08-07T00:43:20;22.10;;;19.80;;
12120;SDS011;6124;59.460;17.908;2023-08-07T00:45:47;25.17;;;19.87;;
12120;SDS011;6124;59.460;17.908;2023-08-07T00:48:15;21.03;;;18.93;;
12120;SDS011;6124;59.460;17.908;2023-08-07T00:50:43;23.83;;;20.27;;
12120;SDS011;6124;59.460;17.908;2023-08-07T00:53:13;24.23;;;21.37;;
12120;SDS011;6124;59.460;17.908;2023-08-07T00:55:40;22.13;;;19.87;;
12120;SDS011;6124;59.460;17.908;2023-08-07T00:58:08;25.07;;;20.33;;
12120;SDS011;6124;59.460;17.908;2023-08-07T01:00:35;23.37;;;20.97;;
12120;SDS011;6124;59.460;17.908;2023-08-07T01:03:07;22.00;;;19.70;;
12120;SDS011;6124;59.460;17.908;2023-08-07T01:05:34;22.40;;;20.07;;
12120;SDS011;6124;59.460;17.908;2023-08-07T01:08:01;21.50;;;19.40;;
12120;SDS011;6124;59.460;17.908;2023-08-07T01:10:34;22.90;;;20.47;;
12120;SDS011;6124;59.460;17.908;2023-08-07T01:13:04;21.87;;;19.63;;
12120;SDS011;6124;59.460;17.908;2023-08-07T01:15:33;23.37;;;20.63;;
12120;SDS011;6124;59.460;17.908;2023-08-07T01:18:01;23.10;;;20.50;;
12120;SDS011;6124;59.460;17.908;2023-08-07T01:20:30;23.10;;;20.60;;
12120;SDS011;6124;59.460;17.908;2023-08-07T01:22:59;22.77;;;20.20;;
12120;SDS011;6124;59.460;17.908;2023-08-07T01:25:26;23.10;;;20.00;;
12120;SDS011;6124;59.460;17.908;2023-08-07T01:27:55;21.13;;;18.90;;
12120;SDS011;6124;59.460;17.908;2023-08-07T01:30:29;22.77;;;20.23;;
12120;SDS011;6124;59.460;17.908;2023-08-07T01:32:59;21.30;;;19.03;;
12120;SDS011;6124;59.460;17.908;2023-08-07T01:35:27;20.27;;;18.23;;
12120;SDS011;6124;59.460;17.908;2023-08-07T01:37:55;19.53;;;17.63;;
12120;SDS011;6124;59.460;17.908;2023-08-07T01:40:24;20.83;;;18.70;;
12120;SDS011;6124;59.460;17.908;2023-08-07T01:42:52;21.67;;;19.60;;
12120;SDS011;6124;59.460;17.908;2023-08-07T01:45:23;20.30;;;18.37;;
12120;SDS011;6124;59.460;17.908;2023-08-07T01:47:51;22.20;;;18.60;;
12120;SDS011;6124;59.460;17.908;2023-08-07T01:50:18;20.40;;;18.33;;
12120;SDS011;6124;59.460;17.908;2023-08-07T01:52:46;19.80;;;17.87;;
12120;SDS011;6124;59.460;17.908;2023-08-07T01:55:13;21.83;;;18.00;;
12120;SDS011;6124;59.460;17.908;2023-08-07T01:57:42;19.93;;;18.00;;
12120;SDS011;6124;59.460;17.908;2023-08-07T02:00:10;18.53;;;16.80;;
12120;SDS011;6124;59.460;17.908;2023-08-07T02:02:38;20.43;;;18.33;;
12120;SDS011;6124;59.460;17.908;2023-08-07T02:05:05;19.53;;;17.53;;
12120;SDS011;6124;59.460;17.908;2023-08-07T02:07:32;17.60;;;15.90;;
12120;SDS011;6124;59.460;17.908;2023-08-07T02:10:00;17.10;;;15.43;;
12120;SDS011;6124;59.460;17.908;2023-08-07T02:12:27;17.57;;;15.83;;
12120;SDS011;6124;59.460;17.908;2023-08-07T02:14:58;16.77;;;15.20;;
12120;SDS011;6124;59.460;17.908;2023-08-07T02:19:55;16.77;;;14.97;;
12120;SDS011;6124;59.460;17.908;2023-08-07T02:22:22;15.67;;;14.17;;
12120;SDS011;6124;59.460;17.908;2023-08-07T02:24:49;16.80;;;14.50;;
12120;SDS011;6124;59.460;17.908;2023-08-07T02:27:17;16.50;;;14.97;;
12120;SDS011;6124;59.460;17.908;2023-08-07T02:29:44;16.27;;;14.47;;
12120;SDS011;6124;59.460;17.908;2023-08-07T02:32:13;17.03;;;15.53;;
12120;SDS011;6124;59.460;17.908;2023-08-07T02:34:40;17.27;;;15.67;;
12120;SDS011;6124;59.460;17.908;2023-08-07T02:37:07;17.07;;;15.47;;
12120;SDS011;6124;59.460;17.908;2023-08-07T02:39:35;17.93;;;16.13;;
12120;SDS011;6124;59.460;17.908;2023-08-07T02:42:02;17.87;;;16.17;;
12120;SDS011;6124;59.460;17.908;2023-08-07T02:44:29;17.53;;;15.93;;
12120;SDS011;6124;59.460;17.908;2023-08-07T02:46:57;18.03;;;16.33;;
12120;SDS011;6124;59.460;17.908;2023-08-07T02:49:25;18.30;;;16.50;;
12120;SDS011;6124;59.460;17.908;2023-08-07T02:51:53;17.40;;;15.63;;
12120;SDS011;6124;59.460;17.908;2023-08-07T02:54:20;18.40;;;16.63;;
12120;SDS011;6124;59.460;17.908;2023-08-07T02:56:47;18.57;;;16.60;;
12120;SDS011;6124;59.460;17.908;2023-08-07T02:59:15;17.73;;;16.13;;
12120;SDS011;6124;59.460;17.908;2023-08-07T03:01:42;18.93;;;17.13;;
12120;SDS011;6124;59.460;17.908;2023-08-07T03:04:10;18.17;;;16.37;;
12120;SDS011;6124;59.460;17.908;2023-08-07T03:06:38;18.00;;;16.20;;
12120;SDS011;6124;59.460;17.908;2023-08-07T03:09:06;17.23;;;15.73;;
12120;SDS011;6124;59.460;17.908;2023-08-07T03:11:33;18.20;;;16.30;;
12120;SDS011;6124;59.460;17.908;2023-08-07T03:14:00;17.23;;;15.47;;
12120;SDS011;6124;59.460;17.908;2023-08-07T03:16:28;16.17;;;14.53;;
12120;SDS011;6124;59.460;17.908;2023-08-07T03:18:55;17.33;;;15.37;;
12120;SDS011;6124;59.460;17.908;2023-08-07T03:21:23;16.10;;;14.57;;
12120;SDS011;6124;59.460;17.908;2023-08-07T03:23:51;17.50;;;15.63;;
12120;SDS011;6124;59.460;17.908;2023-08-07T03:26:19;15.37;;;13.77;;
12120;SDS011;6124;59.460;17.908;2023-08-07T03:28:46;16.90;;;15.30;;
12120;SDS011;6124;59.460;17.908;2023-08-07T03:31:13;15.57;;;14.03;;
12120;SDS011;6124;59.460;17.908;2023-08-07T03:33:41;16.03;;;14.43;;
12120;SDS011;6124;59.460;17.908;2023-08-07T03:36:08;16.93;;;14.27;;
12120;SDS011;6124;59.460;17.908;2023-08-07T03:38:36;15.97;;;14.47;;
12120;SDS011;6124;59.460;17.908;2023-08-07T03:41:04;14.87;;;13.37;;
12120;SDS011;6124;59.460;17.908;2023-08-07T03:43:32;14.93;;;13.60;;
12120;SDS011;6124;59.460;17.908;2023-08-07T03:45:59;13.87;;;12.57;;
12120;SDS011;6124;59.460;17.908;2023-08-07T03:48:26;14.60;;;13.20;;
12120;SDS011;6124;59.460;17.908;2023-08-07T03:51:01;14.30;;;12.83;;
12120;SDS011;6124;59.460;17.908;2023-08-07T03:53:28;14.87;;;13.33;;
12120;SDS011;6124;59.460;17.908;2023-08-07T03:55:56;14.10;;;12.67;;
12120;SDS011;6124;59.460;17.908;2023-08-07T03:58:24;15.27;;;13.67;;
12120;SDS011;6124;59.460;17.908;2023-08-07T04:00:52;14.57;;;13.17;;
12120;SDS011;6124;59.460;17.908;2023-08-07T04:03:19;15.27;;;13.80;;
12120;SDS011;6124;59.460;17.908;2023-08-07T04:05:47;16.17;;;14.47;;
12120;SDS011;6124;59.460;17.908;2023-08-07T04:08:18;15.37;;;13.77;;
12120;SDS011;6124;59.460;17.908;2023-08-07T04:10:46;17.70;;;16.00;;
12120;SDS011;6124;59.460;17.908;2023-08-07T04:13:13;15.67;;;14.17;;
12120;SDS011;6124;59.460;17.908;2023-08-07T04:15:42;16.80;;;14.97;;
12120;SDS011;6124;59.460;17.908;2023-08-07T04:18:09;18.00;;;16.10;;
12120;SDS011;6124;59.460;17.908;2023-08-07T04:20:37;17.10;;;15.07;;
12120;SDS011;6124;59.460;17.908;2023-08-07T04:23:05;18.37;;;16.47;;
12120;SDS011;6124;59.460;17.908;2023-08-07T04:25:32;18.90;;;17.13;;
12120;SDS011;6124;59.460;17.908;2023-08-07T04:27:59;19.63;;;17.57;;
12120;SDS011;6124;59.460;17.908;2023-08-07T04:30:27;19.67;;;17.47;;
12120;SDS011;6124;59.460;17.908;2023-08-07T04:32:55;18.47;;;16.77;;
12120;SDS011;6124;59.460;17.908;2023-08-07T04:35:23;20.07;;;17.90;;
12120;SDS011;6124;59.460;17.908;2023-08-07T04:37:50;19.77;;;17.87;;
12120;SDS011;6124;59.460;17.908;2023-08-07T04:40:17;21.73;;;19.63;;
12120;SDS011;6124;59.460;17.908;2023-08-07T04:42:45;21.67;;;19.33;;
12120;SDS011;6124;59.460;17.908;2023-08-07T04:45:12;21.93;;;19.77;;
12120;SDS011;6124;59.460;17.908;2023-08-07T04:47:39;22.00;;;19.67;;
12120;SDS011;6124;59.460;17.908;2023-08-07T04:50:09;23.43;;;21.13;;
12120;SDS011;6124;59.460;17.908;2023-08-07T04:52:36;24.00;;;21.73;;
12120;SDS011;6124;59.460;17.908;2023-08-07T04:55:04;25.40;;;22.77;;
12120;SDS011;6124;59.460;17.908;2023-08-07T04:57:31;25.50;;;22.90;;
12120;SDS011;6124;59.460;17.908;2023-08-07T04:59:58;25.07;;;22.57;;
12120;SDS011;6124;59.460;17.908;2023-08-07T05:02:26;25.27;;;22.80;;
12120;SDS011;6124;59.460;17.908;2023-08-07T05:04:53;25.97;;;23.40;;
12120;SDS011;6124;59.460;17.908;2023-08-07T05:07:22;26.27;;;23.77;;
12120;SDS011;6124;59.460;17.908;2023-08-07T05:09:49;25.77;;;23.10;;
12120;SDS011;6124;59.460;17.908;2023-08-07T05:12:17;26.27;;;23.77;;
12120;SDS011;6124;59.460;17.908;2023-08-07T05:14:44;26.70;;;23.93;;
12120;SDS011;6124;59.460;17.908;2023-08-07T05:17:11;28.07;;;23.90;;
12120;SDS011;6124;59.460;17.908;2023-08-07T05:19:39;27.63;;;24.33;;
12120;SDS011;6124;59.460;17.908;2023-08-07T05:22:06;27.87;;;25.07;;
12120;SDS011;6124;59.460;17.908;2023-08-07T05:24:35;28.70;;;25.83;;
12120;SDS011;6124;59.460;17.908;2023-08-07T05:27:04;30.53;;;26.27;;
12120;SDS011;6124;59.460;17.908;2023-08-07T05:29:33;31.70;;;26.57;;
12120;SDS011;6124;59.460;17.908;2023-08-07T05:32:08;28.47;;;25.60;;
12120;SDS011;6124;59.460;17.908;2023-08-07T05:34:35;29.90;;;26.80;;
12120;SDS011;6124;59.460;17.908;2023-08-07T05:37:03;28.87;;;25.90;;
12120;SDS011;6124;59.460;17.908;2023-08-07T05:39:30;33.93;;;27.47;;
12120;SDS011;6124;59.460;17.908;2023-08-07T05:42:00;28.63;;;25.77;;
12120;SDS011;6124;59.460;17.908;2023-08-07T05:44:28;30.10;;;26.83;;
12120;SDS011;6124;59.460;17.908;2023-08-07T05:46:55;29.77;;;26.37;;
12120;SDS011;6124;59.460;17.908;2023-08-07T05:49:23;31.03;;;27.17;;
12120;SDS011;6124;59.460;17.908;2023-08-07T05:51:50;29.93;;;26.87;;
12120;SDS011;6124;59.460;17.908;2023-08-07T05:54:17;28.87;;;25.93;;
12120;SDS011;6124;59.460;17.908;2023-08-07T05:56:45;28.30;;;25.30;;
12120;SDS011;6124;59.460;17.908;2023-08-07T05:59:13;27.17;;;24.27;;
12120;SDS011;6124;59.460;17.908;2023-08-07T06:01:41;27.43;;;24.53;;
12120;SDS011;6124;59.460;17.908;2023-08-07T06:04:08;27.80;;;23.53;;
12120;SDS011;6124;59.460;17.908;2023-08-07T06:06:36;26.17;;;23.47;;
12120;SDS011;6124;59.460;17.908;2023-08-07T06:09:04;25.13;;;22.77;;
12120;SDS011;6124;59.460;17.908;2023-08-07T06:11:32;25.70;;;23.00;;
12120;SDS011;6124;59.460;17.908;2023-08-07T06:13:59;26.70;;;24.07;;
12120;SDS011;6124;59.460;17.908;2023-08-07T06:16:28;29.60;;;26.43;;
12120;SDS011;6124;59.460;17.908;2023-08-07T06:18:55;28.03;;;24.83;;
12120;SDS011;6124;59.460;17.908;2023-08-07T06:21:23;30.37;;;27.33;;
12120;SDS011;6124;59.460;17.908;2023-08-07T06:23:50;28.07;;;25.33;;
12120;SDS011;6124;59.460;17.908;2023-08-07T06:26:18;28.70;;;25.00;;
12120;SDS011;6124;59.460;17.908;2023-08-07T06:28:45;27.07;;;24.43;;
12120;SDS011;6124;59.460;17.908;2023-08-07T06:31:13;30.33;;;25.53;;
12120;SDS011;6124;59.460;17.908;2023-08-07T06:33:41;29.37;;;25.77;;
12120;SDS011;6124;59.460;17.908;2023-08-07T06:36:09;27.80;;;24.90;;
12120;SDS011;6124;59.460;17.908;2023-08-07T06:38:36;26.83;;;24.13;;
12120;SDS011;6124;59.460;17.908;2023-08-07T06:41:04;26.53;;;23.77;;
12120;SDS011;6124;59.460;17.908;2023-08-07T06:43:31;25.33;;;22.67;;
12120;SDS011;6124;59.460;17.908;2023-08-07T06:45:59;25.00;;;22.50;;
12120;SDS011;6124;59.460;17.908;2023-08-07T06:48:26;25.03;;;22.33;;
12120;SDS011;6124;59.460;17.908;2023-08-07T06:50:55;23.73;;;21.43;;
12120;SDS011;6124;59.460;17.908;2023-08-07T06:53:22;24.93;;;22.30;;
12120;SDS011;6124;59.460;17.908;2023-08-07T06:55:49;25.00;;;22.43;;
12120;SDS011;6124;59.460;17.908;2023-08-07T06:58:17;24.77;;;22.23;;
12120;SDS011;6124;59.460;17.908;2023-08-07T07:00:45;26.67;;;22.47;;
12120;SDS011;6124;59.460;17.908;2023-08-07T07:03:12;25.47;;;22.77;;
12120;SDS011;6124;59.460;17.908;2023-08-07T07:05:39;23.97;;;21.53;;
12120;SDS011;6124;59.460;17.908;2023-08-07T07:08:09;22.93;;;20.57;;
12120;SDS011;6124;59.460;17.908;2023-08-07T07:10:36;27.40;;;21.90;;
12120;SDS011;6124;59.460;17.908;2023-08-07T07:13:04;24.63;;;22.17;;
12120;SDS011;6124;59.460;17.908;2023-08-07T07:15:33;23.73;;;21.33;;
12120;SDS011;6124;59.460;17.908;2023-08-07T07:18:00;23.33;;;20.87;;
12120;SDS011;6124;59.460;17.908;2023-08-07T07:20:28;23.97;;;20.80;;
12120;SDS011;6124;59.460;17.908;2023-08-07T07:22:55;22.33;;;20.13;;
12120;SDS011;6124;59.460;17.908;2023-08-07T07:25:24;22.33;;;20.20;;
12120;SDS011;6124;59.460;17.908;2023-08-07T07:27:51;23.20;;;20.57;;
12120;SDS011;6124;59.460;17.908;2023-08-07T07:30:18;23.93;;;21.50;;
12120;SDS011;6124;59.460;17.908;2023-08-07T07:32:46;23.40;;;21.00;;
12120;SDS011;6124;59.460;17.908;2023-08-07T07:35:14;22.97;;;20.50;;
12120;SDS011;6124;59.460;17.908;2023-08-07T07:37:41;22.93;;;20.63;;
12120;SDS011;6124;59.460;17.908;2023-08-07T07:40:09;22.60;;;20.47;;
12120;SDS011;6124;59.460;17.908;2023-08-07T07:42:38;23.37;;;21.00;;
12120;SDS011;6124;59.460;17.908;2023-08-07T07:45:05;23.30;;;20.80;;
12120;SDS011;6124;59.460;17.908;2023-08-07T07:47:33;23.33;;;20.97;;
12120;SDS011;6124;59.460;17.908;2023-08-07T07:50:07;22.93;;;20.57;;
12120;SDS011;6124;59.460;17.908;2023-08-07T07:52:34;22.37;;;20.17;;
12120;SDS011;6124;59.460;17.908;2023-08-07T07:55:02;24.13;;;21.03;;
12120;SDS011;6124;59.460;17.908;2023-08-07T07:57:30;23.70;;;21.27;;
12120;SDS011;6124;59.460;17.908;2023-08-07T07:59:59;24.07;;;21.67;;
12120;SDS011;6124;59.460;17.908;2023-08-07T08:02:26;22.60;;;20.40;;
12120;SDS011;6124;59.460;17.908;2023-08-07T08:04:53;24.23;;;21.80;;
12120;SDS011;6124;59.460;17.908;2023-08-07T08:07:21;23.60;;;21.20;;
12120;SDS011;6124;59.460;17.908;2023-08-07T08:09:49;24.37;;;22.00;;
12120;SDS011;6124;59.460;17.908;2023-08-07T08:12:17;23.90;;;21.63;;
12120;SDS011;6124;59.460;17.908;2023-08-07T08:14:44;23.40;;;20.30;;
12120;SDS011;6124;59.460;17.908;2023-08-07T08:17:13;23.63;;;21.13;;
12120;SDS011;6124;59.460;17.908;2023-08-07T08:19:40;23.27;;;20.87;;
12120;SDS011;6124;59.460;17.908;2023-08-07T08:22:07;22.37;;;20.17;;
12120;SDS011;6124;59.460;17.908;2023-08-07T08:24:34;23.63;;;21.27;;
12120;SDS011;6124;59.460;17.908;2023-08-07T08:27:02;22.47;;;20.37;;
12120;SDS011;6124;59.460;17.908;2023-08-07T08:29:30;22.07;;;19.87;;
12120;SDS011;6124;59.460;17.908;2023-08-07T08:31:57;22.17;;;19.83;;
12120;SDS011;6124;59.460;17.908;2023-08-07T08:34:26;22.43;;;20.17;;
12120;SDS011;6124;59.460;17.908;2023-08-07T08:36:54;22.13;;;19.90;;
12120;SDS011;6124;59.460;17.908;2023-08-07T08:39:21;23.03;;;20.17;;
12120;SDS011;6124;59.460;17.908;2023-08-07T08:41:49;20.97;;;19.07;;
12120;SDS011;6124;59.460;17.908;2023-08-07T08:44:17;24.27;;;20.77;;
12120;SDS011;6124;59.460;17.908;2023-08-07T08:46:46;21.60;;;19.43;;
12120;SDS011;6124;59.460;17.908;2023-08-07T08:49:19;22.50;;;20.20;;
12120;SDS011;6124;59.460;17.908;2023-08-07T08:51:49;23.23;;;20.40;;
12120;SDS011;6124;59.460;17.908;2023-08-07T08:54:16;22.30;;;20.03;;
12120;SDS011;6124;59.460;17.908;2023-08-07T08:56:44;23.43;;;21.03;;
12120;SDS011;6124;59.460;17.908;2023-08-07T08:59:11;21.57;;;19.57;;
12120;SDS011;6124;59.460;17.908;2023-08-07T09:01:39;22.10;;;19.87;;
12120;SDS011;6124;59.460;17.908;2023-08-07T09:04:06;21.23;;;19.30;;
12120;SDS011;6124;59.460;17.908;2023-08-07T09:06:35;21.10;;;19.00;;
12120;SDS011;6124;59.460;17.908;2023-08-07T09:09:04;20.07;;;18.20;;
12120;SDS011;6124;59.460;17.908;2023-08-07T09:11:32;20.93;;;19.13;;
12120;SDS011;6124;59.460;17.908;2023-08-07T09:14:00;21.03;;;19.27;;
12120;SDS011;6124;59.460;17.908;2023-08-07T09:16:29;20.53;;;18.53;;
12120;SDS011;6124;59.460;17.908;2023-08-07T09:18:57;21.50;;;19.50;;
12120;SDS011;6124;59.460;17.908;2023-08-07T09:21:24;20.40;;;18.60;;
12120;SDS011;6124;59.460;17.908;2023-08-07T09:23:53;20.17;;;18.47;;
12120;SDS011;6124;59.460;17.908;2023-08-07T09:26:22;20.57;;;18.77;;
12120;SDS011;6124;59.460;17.908;2023-08-07T09:28:50;21.43;;;19.43;;
12120;SDS011;6124;59.460;17.908;2023-08-07T09:31:19;21.07;;;19.07;;
12120;SDS011;6124;59.460;17.908;2023-08-07T09:33:47;22.33;;;19.90;;
12120;SDS011;6124;59.460;17.908;2023-08-07T09:36:14;22.27;;;20.10;;
12120;SDS011;6124;59.460;17.908;2023-08-07T09:38:42;20.03;;;18.23;;
12120;SDS011;6124;59.460;17.908;2023-08-07T09:41:09;20.77;;;18.77;;
12120;SDS011;6124;59.460;17.908;2023-08-07T09:43:38;20.07;;;18.17;;
12120;SDS011;6124;59.460;17.908;2023-08-07T09:46:06;20.77;;;18.57;;
12120;SDS011;6124;59.460;17.908;2023-08-07T09:48:38;20.17;;;18.37;;
12120;SDS011;6124;59.460;17.908;2023-08-07T09:51:06;19.93;;;18.03;;
12120;SDS011;6124;59.460;17.908;2023-08-07T09:53:34;20.07;;;18.27;;
12120;SDS011;6124;59.460;17.908;2023-08-07T09:56:01;20.07;;;18.30;;
12120;SDS011;6124;59.460;17.908;2023-08-07T09:58:28;20.93;;;18.83;;
12120;SDS011;6124;59.460;17.908;2023-08-07T10:00:59;19.97;;;17.87;;
12120;SDS011;6124;59.460;17.908;2023-08-07T10:03:27;20.00;;;18.00;;
12120;SDS011;6124;59.460;17.908;2023-08-07T10:05:55;19.33;;;17.53;;
12120;SDS011;6124;59.460;17.908;2023-08-07T10:08:22;19.70;;;17.90;;
12120;SDS011;6124;59.460;17.908;2023-08-07T10:10:51;19.40;;;17.67;;
12120;SDS011;6124;59.460;17.908;2023-08-07T10:13:19;21.30;;;19.07;;
12120;SDS011;6124;59.460;17.908;2023-08-07T10:15:48;20.63;;;18.50;;
12120;SDS011;6124;59.460;17.908;2023-08-07T10:18:17;18.77;;;17.03;;
12120;SDS011;6124;59.460;17.908;2023-08-07T10:20:46;19.90;;;18.00;;
12120;SDS011;6124;59.460;17.908;2023-08-07T10:23:14;20.00;;;18.33;;
12120;SDS011;6124;59.460;17.908;2023-08-07T10:25:43;19.80;;;18.00;;
12120;SDS011;6124;59.460;17.908;2023-08-07T10:28:13;20.20;;;18.20;;
12120;SDS011;6124;59.460;17.908;2023-08-07T10:30:41;18.97;;;17.27;;
12120;SDS011;6124;59.460;17.908;2023-08-07T10:33:09;20.13;;;18.17;;
12120;SDS011;6124;59.460;17.908;2023-08-07T10:35:43;19.67;;;17.77;;
12120;SDS011;6124;59.460;17.908;2023-08-07T10:38:11;20.60;;;18.23;;
12120;SDS011;6124;59.460;17.908;2023-08-07T10:43:20;20.80;;;18.70;;
12120;SDS011;6124;59.460;17.908;2023-08-07T10:45:50;19.97;;;18.17;;
12120;SDS011;6124;59.460;17.908;2023-08-07T10:48:18;20.13;;;18.20;;
12120;SDS011;6124;59.460;17.908;2023-08-07T10:50:57;21.00;;;18.73;;
12120;SDS011;6124;59.460;17.908;2023-08-07T10:53:30;20.50;;;18.20;;
12120;SDS011;6124;59.460;17.908;2023-08-07T10:55:58;20.83;;;18.77;;
12120;SDS011;6124;59.460;17.908;2023-08-07T10:58:25;20.53;;;18.60;;
12120;SDS011;6124;59.460;17.908;2023-08-07T11:03:35;22.87;;;19.13;;
12120;SDS011;6124;59.460;17.908;2023-08-07T11:06:04;20.70;;;18.63;;
12120;SDS011;6124;59.460;17.908;2023-08-07T11:08:32;20.63;;;18.67;;
12120;SDS011;6124;59.460;17.908;2023-08-07T11:11:03;21.67;;;19.30;;
12120;SDS011;6124;59.460;17.908;2023-08-07T11:13:31;22.63;;;20.20;;
12120;SDS011;6124;59.460;17.908;2023-08-07T11:15:58;21.83;;;19.40;;
12120;SDS011;6124;59.460;17.908;2023-08-07T11:18:25;21.90;;;20.00;;
12120;SDS011;6124;59.460;17.908;2023-08-07T11:20:53;20.47;;;18.57;;
12120;SDS011;6124;59.460;17.908;2023-08-07T11:23:24;20.87;;;18.70;;
12120;SDS011;6124;59.460;17.908;2023-08-07T11:25:52;21.37;;;19.13;;
12120;SDS011;6124;59.460;17.908;2023-08-07T11:28:20;20.03;;;18.20;;
12120;SDS011;6124;59.460;17.908;2023-08-07T11:30:48;21.23;;;19.03;;
12120;SDS011;6124;59.460;17.908;2023-08-07T11:33:17;20.63;;;18.57;;
12120;SDS011;6124;59.460;17.908;2023-08-07T11:35:44;20.13;;;18.00;;
12120;SDS011;6124;59.460;17.908;2023-08-07T11:38:12;20.17;;;18.27;;
12120;SDS011;6124;59.460;17.908;2023-08-07T11:40:40;20.83;;;18.73;;
12120;SDS011;6124;59.460;17.908;2023-08-07T11:43:08;20.30;;;18.40;;
12120;SDS011;6124;59.460;17.908;2023-08-07T11:45:35;20.20;;;18.17;;
12120;SDS011;6124;59.460;17.908;2023-08-07T11:48:03;19.83;;;17.87;;
12120;SDS011;6124;59.460;17.908;2023-08-07T11:50:30;19.80;;;17.87;;
12120;SDS011;6124;59.460;17.908;2023-08-07T11:52:58;19.80;;;18.00;;
12120;SDS011;6124;59.460;17.908;2023-08-07T11:55:27;19.40;;;17.30;;
12120;SDS011;6124;59.460;17.908;2023-08-07T11:57:57;19.00;;;17.07;;
12120;SDS011;6124;59.460;17.908;2023-08-07T12:00:25;19.60;;;17.90;;
12120;SDS011;6124;59.460;17.908;2023-08-07T12:02:53;20.23;;;18.23;;
12120;SDS011;6124;59.460;17.908;2023-08-07T12:05:20;18.60;;;16.70;;
12120;SDS011;6124;59.460;17.908;2023-08-07T12:07:48;19.57;;;17.67;;
12120;SDS011;6124;59.460;17.908;2023-08-07T12:10:17;20.47;;;17.87;;
12120;SDS011;6124;59.460;17.908;2023-08-07T12:12:44;19.07;;;17.20;;
12120;SDS011;6124;59.460;17.908;2023-08-07T12:15:13;20.00;;;18.10;;
12120;SDS011;6124;59.460;17.908;2023-08-07T12:17:40;18.80;;;17.10;;
12120;SDS011;6124;59.460;17.908;2023-08-07T12:20:07;20.17;;;18.17;;
12120;SDS011;6124;59.460;17.908;2023-08-07T12:22:36;20.63;;;18.57;;
12120;SDS011;6124;59.460;17.908;2023-08-07T12:25:04;18.63;;;17.07;;
12120;SDS011;6124;59.460;17.908;2023-08-07T12:27:32;19.10;;;17.43;;
12120;SDS011;6124;59.460;17.908;2023-08-07T12:29:59;19.53;;;17.83;;
12120;SDS011;6124;59.460;17.908;2023-08-07T12:32:27;19.43;;;17.60;;
12120;SDS011;6124;59.460;17.908;2023-08-07T12:34:55;18.63;;;16.93;;
12120;SDS011;6124;59.460;17.908;2023-08-07T12:37:22;20.33;;;18.27;;
12120;SDS011;6124;59.460;17.908;2023-08-07T12:39:49;19.87;;;17.93;;
12120;SDS011;6124;59.460;17.908;2023-08-07T12:42:17;19.57;;;17.67;;
12120;SDS011;6124;59.460;17.908;2023-08-07T12:44:44;20.50;;;18.30;;
12120;SDS011;6124;59.460;17.908;2023-08-07T12:47:11;18.67;;;16.90;;
12120;SDS011;6124;59.460;17.908;2023-08-07T12:49:40;16.43;;;14.83;;
12120;SDS011;6124;59.460;17.908;2023-08-07T12:52:07;15.67;;;14.27;;
12120;SDS011;6124;59.460;17.908;2023-08-07T12:54:34;15.83;;;14.50;;
12120;SDS011;6124;59.460;17.908;2023-08-07T12:57:02;15.00;;;13.50;;
12120;SDS011;6124;59.460;17.908;2023-08-07T12:59:29;15.00;;;13.60;;
12120;SDS011;6124;59.460;17.908;2023-08-07T13:01:56;14.67;;;13.43;;
12120;SDS011;6124;59.460;17.908;2023-08-07T13:04:24;14.60;;;13.30;;
12120;SDS011;6124;59.460;17.908;2023-08-07T13:06:52;14.60;;;13.33;;
12120;SDS011;6124;59.460;17.908;2023-08-07T13:09:20;14.50;;;13.30;;
12120;SDS011;6124;59.460;17.908;2023-08-07T13:11:47;15.33;;;13.90;;
12120;SDS011;6124;59.460;17.908;2023-08-07T13:14:14;14.90;;;13.33;;
12120;SDS011;6124;59.460;17.908;2023-08-07T13:16:42;14.87;;;13.57;;
12120;SDS011;6124;59.460;17.908;2023-08-07T13:19:09;15.50;;;14.10;;
12120;SDS011;6124;59.460;17.908;2023-08-07T13:21:36;16.33;;;14.77;;
12120;SDS011;6124;59.460;17.908;2023-08-07T13:24:05;16.33;;;14.83;;
12120;SDS011;6124;59.460;17.908;2023-08-07T13:26:32;15.77;;;14.37;;
12120;SDS011;6124;59.460;17.908;2023-08-07T13:29:00;16.03;;;14.43;;
12120;SDS011;6124;59.460;17.908;2023-08-07T13:31:27;16.50;;;14.67;;
12120;SDS011;6124;59.460;17.908;2023-08-07T13:33:54;16.27;;;14.77;;
12120;SDS011;6124;59.460;17.908;2023-08-07T13:36:22;16.77;;;15.20;;
12120;SDS011;6124;59.460;17.908;2023-08-07T13:38:49;16.57;;;15.07;;
12120;SDS011;6124;59.460;17.908;2023-08-07T13:41:18;16.00;;;14.50;;
12120;SDS011;6124;59.460;17.908;2023-08-07T13:43:45;16.63;;;15.03;;
12120;SDS011;6124;59.460;17.908;2023-08-07T13:46:13;15.87;;;14.37;;
12120;SDS011;6124;59.460;17.908;2023-08-07T13:48:40;17.47;;;15.77;;
12120;SDS011;6124;59.460;17.908;2023-08-07T13:51:07;16.07;;;14.37;;
12120;SDS011;6124;59.460;17.908;2023-08-07T13:53:35;15.20;;;13.90;;
12120;SDS011;6124;59.460;17.908;2023-08-07T13:56:02;15.20;;;13.80;;
12120;SDS011;6124;59.460;17.908;2023-08-07T13:58:31;14.77;;;13.47;;
12120;SDS011;6124;59.460;17.908;2023-08-07T14:00:58;15.43;;;14.13;;
12120;SDS011;6124;59.460;17.908;2023-08-07T14:03:25;14.63;;;13.33;;
12120;SDS011;6124;59.460;17.908;2023-08-07T14:05:53;15.33;;;14.00;;
12120;SDS011;6124;59.460;17.908;2023-08-07T14:08:20;14.97;;;13.60;;
12120;SDS011;6124;59.460;17.908;2023-08-07T14:10:47;13.70;;;12.40;;
12120;SDS011;6124;59.460;17.908;2023-08-07T14:13:15;13.90;;;12.60;;
12120;SDS011;6124;59.460;17.908;2023-08-07T14:15:44;13.50;;;12.33;;
12120;SDS011;6124;59.460;17.908;2023-08-07T14:18:12;14.47;;;12.97;;
12120;SDS011;6124;59.460;17.908;2023-08-07T14:20:40;15.27;;;13.50;;
12120;SDS011;6124;59.460;17.908;2023-08-07T14:23:07;14.63;;;13.20;;
12120;SDS011;6124;59.460;17.908;2023-08-07T14:25:35;14.47;;;13.17;;
12120;SDS011;6124;59.460;17.908;2023-08-07T14:28:03;14.47;;;13.07;;
12120;SDS011;6124;59.460;17.908;2023-08-07T14:30:32;13.63;;;12.37;;
12120;SDS011;6124;59.460;17.908;2023-08-07T14:33:00;13.90;;;12.67;;